createdAt,value
2024-02-04T00:00:39.638Z,8.70
2024-02-04T00:03:07.780Z,8.70
2024-02-04T00:05:37.776Z,8.70
2024-02-04T00:08:06.420Z,8.70
2024-02-04T00:10:36.945Z,8.70
2024-02-04T00:13:05.317Z,8.70
2024-02-04T00:15:33.329Z,8.60
2024-02-04T00:18:01.286Z,8.70
2024-02-04T00:20:30.815Z,8.60
2024-02-04T00:22:58.773Z,8.60
2024-02-04T00:25:26.823Z,8.60
2024-02-04T00:27:56.185Z,8.60
2024-02-04T00:30:24.260Z,8.60
2024-02-04T00:32:52.307Z,8.60
2024-02-04T00:35:20.528Z,8.60
2024-02-04T00:37:48.958Z,8.60
2024-02-04T00:40:17.027Z,8.60
2024-02-04T00:42:45.076Z,8.60
2024-02-04T00:45:14.642Z,8.60
2024-02-04T00:47:42.601Z,8.60
2024-02-04T00:50:11.496Z,8.50
2024-02-04T00:52:41.228Z,8.60
2024-02-04T00:55:10.007Z,8.50
2024-02-04T00:57:38.050Z,8.60
2024-02-04T01:00:06.907Z,8.50
2024-02-04T01:02:36.289Z,8.50
2024-02-04T01:05:04.524Z,8.50
2024-02-04T01:07:33.984Z,8.50
2024-02-04T01:10:02.805Z,8.50
2024-02-04T01:12:32.013Z,8.50
2024-02-04T01:15:00.015Z,8.50
2024-02-04T01:17:28.138Z,8.50
2024-02-04T01:19:57.601Z,8.40
2024-02-04T01:22:28.097Z,8.40
2024-02-04T01:24:56.148Z,8.40
2024-02-04T01:27:24.104Z,8.40
2024-02-04T01:29:52.101Z,8.40
2024-02-04T01:32:20.458Z,8.40
2024-02-04T01:34:48.819Z,8.40
2024-02-04T01:37:18.710Z,8.40
2024-02-04T01:39:46.739Z,8.40
2024-02-04T01:42:14.836Z,8.40
2024-02-04T01:44:43.149Z,8.40
2024-02-04T01:47:11.489Z,8.40
2024-02-04T01:49:40.293Z,8.40
2024-02-04T01:52:10.416Z,8.40
2024-02-04T01:54:42.041Z,8.40
2024-02-04T01:57:12.618Z,8.40
2024-02-04T01:59:41.369Z,8.40
2024-02-04T02:02:09.735Z,8.40
2024-02-04T02:04:37.763Z,8.30
2024-02-04T02:07:09.141Z,8.30
2024-02-04T02:09:37.265Z,8.40
2024-02-04T02:12:12.560Z,8.40
2024-02-04T02:14:44.466Z,8.30
2024-02-04T02:17:19.073Z,8.40
2024-02-04T02:19:53.813Z,8.30
2024-02-04T02:22:31.014Z,8.30
2024-02-04T02:25:01.813Z,8.30
2024-02-04T02:27:30.158Z,8.30
2024-02-04T02:29:58.204Z,8.30
2024-02-04T02:32:26.696Z,8.30
2024-02-04T02:34:54.781Z,8.30
2024-02-04T02:37:32.842Z,8.30
2024-02-04T02:40:06.575Z,8.30
2024-02-04T02:42:35.706Z,8.30
2024-02-04T02:45:04.147Z,8.30
2024-02-04T02:47:33.961Z,8.30
2024-02-04T02:50:03.278Z,8.30
2024-02-04T02:52:31.259Z,8.20
2024-02-04T02:54:59.238Z,8.20
2024-02-04T02:57:28.625Z,8.30
2024-02-04T02:59:56.559Z,8.30
2024-02-04T03:02:24.883Z,8.20
2024-02-04T03:04:53.008Z,8.20
2024-02-04T03:07:20.986Z,8.20
2024-02-04T03:09:49.006Z,8.20
2024-02-04T03:12:17.004Z,8.20
2024-02-04T03:14:46.363Z,8.20
2024-02-04T03:17:14.543Z,8.20
2024-02-04T03:19:42.596Z,8.20
2024-02-04T03:22:10.705Z,8.20
2024-02-04T03:24:38.757Z,8.20
2024-02-04T03:27:06.769Z,8.20
2024-02-04T03:29:34.764Z,8.20
2024-02-04T03:32:04.385Z,8.20
2024-02-04T03:34:32.786Z,8.20
2024-02-04T03:37:00.936Z,8.20
2024-02-04T03:39:28.958Z,8.20
2024-02-04T03:41:56.925Z,8.20
2024-02-04T03:44:24.941Z,8.20
2024-02-04T03:46:53.047Z,8.10
2024-02-04T03:49:22.995Z,8.20
2024-02-04T03:51:51.256Z,8.20
2024-02-04T03:54:20.318Z,8.20
2024-02-04T03:56:48.426Z,8.20
2024-02-04T03:59:16.347Z,8.20
2024-02-04T04:01:59.350Z,8.20
2024-02-04T04:04:29.319Z,8.10
2024-02-04T04:06:57.502Z,8.10
2024-02-04T04:09:25.644Z,8.10
2024-02-04T04:11:53.658Z,8.10
2024-02-04T04:14:21.564Z,8.20
2024-02-04T04:16:49.451Z,8.10
2024-02-04T04:19:17.404Z,8.10
2024-02-04T04:21:46.795Z,8.20
2024-02-04T04:24:16.859Z,8.20
2024-02-04T04:26:44.768Z,8.10
2024-02-04T04:29:12.660Z,8.10
2024-02-04T04:31:40.723Z,8.10
2024-02-04T04:34:08.867Z,8.10
2024-02-04T04:36:37.238Z,8.10
2024-02-04T04:39:06.529Z,8.10
2024-02-04T04:41:34.398Z,8.10
2024-02-04T04:44:02.275Z,8.10
2024-02-04T04:46:30.207Z,8.10
2024-02-04T04:48:59.486Z,8.10
2024-02-04T04:51:28.699Z,8.10
2024-02-04T04:53:56.559Z,8.10
2024-02-04T04:56:25.788Z,8.10
2024-02-04T04:58:53.778Z,8.10
2024-02-04T05:01:21.798Z,8.10
2024-02-04T05:03:49.821Z,8.10
2024-02-04T05:06:17.821Z,8.10
2024-02-04T05:08:45.707Z,8.10
2024-02-04T05:11:13.629Z,8.10
2024-02-04T05:13:42.883Z,8.10
2024-02-04T05:16:10.859Z,8.10
2024-02-04T05:18:38.915Z,8.00
2024-02-04T05:21:07.227Z,8.10
2024-02-04T05:23:35.176Z,8.00
2024-02-04T05:26:05.620Z,8.00
2024-02-04T05:28:33.562Z,8.00
2024-02-04T05:31:04.347Z,8.00
2024-02-04T05:33:32.581Z,8.00
2024-02-04T05:36:00.565Z,8.00
2024-02-04T05:38:28.514Z,8.00
2024-02-04T05:40:56.603Z,8.00
2024-02-04T05:43:24.668Z,8.00
2024-02-04T05:45:52.682Z,8.00
2024-02-04T05:48:22.293Z,8.00
2024-02-04T05:50:50.377Z,8.00
2024-02-04T05:53:18.280Z,8.00
2024-02-04T05:55:46.261Z,8.00
2024-02-04T05:58:15.105Z,8.00
2024-02-04T06:00:43.133Z,7.90
2024-02-04T06:03:11.123Z,8.00
2024-02-04T06:05:40.558Z,7.90
2024-02-04T06:08:08.730Z,7.90
2024-02-04T06:10:36.639Z,7.90
2024-02-04T06:13:04.875Z,7.90
2024-02-04T06:15:32.850Z,7.90
2024-02-04T06:18:00.777Z,7.90
2024-02-04T06:20:28.788Z,7.90
2024-02-04T06:22:59.050Z,7.90
2024-02-04T06:25:27.068Z,7.90
2024-02-04T06:27:55.014Z,7.90
2024-02-04T06:30:23.020Z,7.90
2024-02-04T06:32:51.537Z,7.90
2024-02-04T06:35:19.441Z,7.90
2024-02-04T06:38:02.072Z,7.90
2024-02-04T06:40:30.179Z,7.90
2024-02-04T06:42:58.099Z,7.90
2024-02-04T06:45:26.041Z,7.90
2024-02-04T06:47:54.034Z,7.90
2024-02-04T06:50:22.052Z,7.90
2024-02-04T06:52:49.958Z,7.90
2024-02-04T06:55:19.353Z,7.90
2024-02-04T06:57:47.541Z,7.90
2024-02-04T07:00:16.791Z,7.90
2024-02-04T07:02:45.072Z,7.90
2024-02-04T07:05:13.047Z,7.90
2024-02-04T07:07:40.978Z,7.90
2024-02-04T07:10:09.648Z,7.90
2024-02-04T07:12:39.153Z,7.90
2024-02-04T07:15:07.693Z,7.90
2024-02-04T07:17:35.887Z,7.90
2024-02-04T07:20:04.056Z,7.90
2024-02-04T07:22:34.174Z,7.90
2024-02-04T07:25:04.902Z,7.80
2024-02-04T07:27:33.148Z,7.90
2024-02-04T07:30:02.430Z,7.90
2024-02-04T07:32:30.595Z,7.80
2024-02-04T07:34:58.612Z,7.90
2024-02-04T07:37:26.664Z,7.90
2024-02-04T07:39:54.646Z,7.80
2024-02-04T07:42:22.628Z,7.90
2024-02-04T07:44:50.608Z,7.90
2024-02-04T07:47:20.748Z,7.80
2024-02-04T07:49:48.991Z,7.80
2024-02-04T07:52:16.968Z,7.90
2024-02-04T07:54:45.312Z,7.80
2024-02-04T07:57:13.231Z,7.90
2024-02-04T07:59:41.102Z,7.90
2024-02-04T08:02:09.057Z,7.90
2024-02-04T08:04:38.429Z,7.90
2024-02-04T08:07:06.603Z,7.90
2024-02-04T08:09:35.418Z,7.90
2024-02-04T08:12:04.711Z,7.90
2024-02-04T08:14:32.685Z,7.90
2024-02-04T08:17:00.664Z,7.90
2024-02-04T08:19:28.599Z,7.90
2024-02-04T08:21:57.945Z,7.90
2024-02-04T08:24:25.931Z,7.90
2024-02-04T08:26:54.150Z,7.90
2024-02-04T08:29:22.164Z,7.90
2024-02-04T08:31:50.083Z,7.90
2024-02-04T08:34:18.086Z,7.90
2024-02-04T08:36:46.140Z,7.90
2024-02-04T08:39:15.561Z,7.90
2024-02-04T08:41:43.910Z,8.00
2024-02-04T08:44:16.096Z,7.90
2024-02-04T08:46:50.448Z,7.90
2024-02-04T08:49:18.508Z,7.90
2024-02-04T08:51:46.705Z,7.90
2024-02-04T08:54:16.030Z,7.90
2024-02-04T08:56:43.881Z,7.90
2024-02-04T08:59:11.832Z,7.90
2024-02-04T09:01:39.877Z,7.90
2024-02-04T09:04:07.931Z,7.90
2024-02-04T09:06:35.953Z,7.90
2024-02-04T09:09:03.964Z,7.90
2024-02-04T09:11:33.665Z,7.90
2024-02-04T09:14:01.648Z,7.90
2024-02-04T09:16:30.902Z,7.90
2024-02-04T09:18:58.940Z,7.90
2024-02-04T09:21:27.340Z,7.90
2024-02-04T09:23:55.544Z,7.90
2024-02-04T09:26:23.385Z,7.90
2024-02-04T09:28:52.680Z,7.90
2024-02-04T09:31:20.984Z,8.00
2024-02-04T09:33:49.189Z,7.90
2024-02-04T09:36:17.572Z,8.00
2024-02-04T09:38:45.777Z,8.00
2024-02-04T09:41:13.968Z,8.00
2024-02-04T09:43:43.008Z,8.00
2024-02-04T09:46:12.884Z,8.00
2024-02-04T09:48:42.756Z,8.00
2024-02-04T09:51:11.080Z,8.00
2024-02-04T09:53:45.138Z,8.00
2024-02-04T09:56:15.870Z,8.00
2024-02-04T09:58:45.271Z,8.00
2024-02-04T10:01:17.088Z,8.00
2024-02-04T10:03:44.240Z,8.00
2024-02-04T10:06:12.703Z,8.10
2024-02-04T10:08:41.400Z,8.00
2024-02-04T10:11:09.510Z,8.10
2024-02-04T10:13:46.007Z,8.00
2024-02-04T10:16:15.961Z,8.10
2024-02-04T10:18:44.960Z,8.10
2024-02-04T10:21:20.681Z,8.10
2024-02-04T10:23:48.780Z,8.10
2024-02-04T10:26:17.512Z,8.10
2024-02-04T10:28:48.653Z,8.10
2024-02-04T10:31:18.200Z,8.10
2024-02-04T10:33:46.710Z,8.10
2024-02-04T10:36:14.790Z,8.10
2024-02-04T10:38:42.776Z,8.10
2024-02-04T10:41:16.541Z,8.20
2024-02-04T10:43:45.999Z,8.20
2024-02-04T10:46:16.260Z,8.20
2024-02-04T10:48:48.171Z,8.20
2024-02-04T10:51:18.332Z,8.20
2024-02-04T10:53:47.988Z,8.20
2024-02-04T10:56:22.287Z,8.30
2024-02-04T10:58:51.280Z,8.30
2024-02-04T11:01:20.092Z,8.30
2024-02-04T11:03:50.366Z,8.30
2024-02-04T11:06:18.927Z,8.30
2024-02-04T11:08:46.885Z,8.30
2024-02-04T11:11:15.003Z,8.40
2024-02-04T11:13:47.030Z,8.40
2024-02-04T11:16:24.093Z,8.40
2024-02-04T11:19:06.988Z,8.50
2024-02-04T11:22:04.370Z,8.50
2024-02-04T11:24:54.934Z,8.50
2024-02-04T11:27:23.536Z,8.50
2024-02-04T11:29:51.741Z,8.50
2024-02-04T11:32:20.099Z,8.60
2024-02-04T11:34:49.915Z,8.60
2024-02-04T11:37:20.468Z,8.60
2024-02-04T11:39:53.346Z,8.60
2024-02-04T11:42:22.440Z,8.70
2024-02-04T11:44:51.006Z,8.70
2024-02-04T11:47:25.606Z,8.70
2024-02-04T11:49:58.499Z,8.70
2024-02-04T11:52:29.924Z,8.70
2024-02-04T11:54:58.341Z,8.70
2024-02-04T11:57:26.604Z,8.80
2024-02-04T11:59:56.594Z,8.80
2024-02-04T12:02:24.566Z,8.80
2024-02-04T12:04:53.324Z,8.80
2024-02-04T12:07:23.817Z,8.80
2024-02-04T12:09:51.978Z,8.90
2024-02-04T12:12:20.256Z,8.90
2024-02-04T12:14:48.597Z,8.90
2024-02-04T12:17:17.101Z,8.90
2024-02-04T12:19:45.299Z,9.00
2024-02-04T12:22:13.577Z,9.00
2024-02-04T12:24:43.187Z,9.00
2024-02-04T12:27:11.300Z,9.10
2024-02-04T12:29:40.448Z,9.00
2024-02-04T12:32:08.892Z,9.10
2024-02-04T12:34:38.771Z,9.10
2024-02-04T12:37:06.798Z,9.20
2024-02-04T12:39:34.909Z,9.20
2024-02-04T12:42:04.530Z,9.20
2024-02-04T12:44:32.558Z,9.20
2024-02-04T12:47:00.756Z,9.20
2024-02-04T12:49:29.025Z,9.30
2024-02-04T12:52:07.275Z,9.30
2024-02-04T12:54:43.367Z,9.40
2024-02-04T12:57:13.276Z,9.30
2024-02-04T12:59:41.144Z,9.40
2024-02-04T13:02:16.779Z,9.40
2024-02-04T13:04:44.840Z,9.40
2024-02-04T13:07:15.237Z,9.40
2024-02-04T13:09:43.727Z,9.40
2024-02-04T13:12:16.127Z,9.40
2024-02-04T13:14:45.602Z,9.50
2024-02-04T13:17:13.652Z,9.50
2024-02-04T13:19:42.435Z,9.50
2024-02-04T13:22:11.650Z,9.50
2024-02-04T13:24:40.528Z,9.50
2024-02-04T13:27:09.111Z,9.50
2024-02-04T13:29:38.487Z,9.50
2024-02-04T13:32:07.398Z,9.50
2024-02-04T13:34:35.677Z,9.50
2024-02-04T13:37:03.961Z,9.50
2024-02-04T13:39:32.510Z,9.50
2024-02-04T13:42:00.475Z,9.50
2024-02-04T13:44:28.450Z,9.50
2024-02-04T13:46:57.842Z,9.50
2024-02-04T13:49:25.955Z,9.60
2024-02-04T13:51:54.216Z,9.50
2024-02-04T13:54:22.189Z,9.60
2024-02-04T13:56:50.992Z,9.60
2024-02-04T13:59:19.121Z,9.60
2024-02-04T14:01:47.093Z,9.60
2024-02-04T14:04:16.615Z,9.60
2024-02-04T14:06:44.843Z,9.60
2024-02-04T14:09:13.998Z,9.60
2024-02-04T14:11:42.284Z,9.60
2024-02-04T14:14:10.289Z,9.60
2024-02-04T14:16:38.343Z,9.60
2024-02-04T14:19:06.399Z,9.60
2024-02-04T14:21:35.946Z,9.60
2024-02-04T14:24:04.015Z,9.60
2024-02-04T14:26:32.261Z,9.60
2024-02-04T14:29:00.481Z,9.60
2024-02-04T14:31:28.493Z,9.60
2024-02-04T14:33:57.142Z,9.60
2024-02-04T14:36:25.684Z,9.60
2024-02-04T14:38:54.985Z,9.60
2024-02-04T14:41:23.164Z,9.60
2024-02-04T14:43:51.378Z,9.60
2024-02-04T14:46:19.526Z,9.60
2024-02-04T14:48:48.150Z,9.60
2024-02-04T14:51:16.221Z,9.60
2024-02-04T14:53:44.251Z,9.60
2024-02-04T14:56:13.771Z,9.60
2024-02-04T14:58:43.610Z,9.60
2024-02-04T15:01:11.739Z,9.50
2024-02-04T15:03:39.976Z,9.50
2024-02-04T15:06:08.249Z,9.50
2024-02-04T15:08:36.290Z,9.60
2024-02-04T15:11:04.437Z,9.50
2024-02-04T15:13:34.690Z,9.50
2024-02-04T15:16:03.700Z,9.60
2024-02-04T15:18:33.145Z,9.60
2024-02-04T15:21:01.678Z,9.50
2024-02-04T15:23:30.540Z,9.60
2024-02-04T15:25:59.460Z,9.60
2024-02-04T15:28:27.919Z,9.60
2024-02-04T15:30:58.150Z,9.50
2024-02-04T15:33:30.192Z,9.50
2024-02-04T15:35:58.383Z,9.50
2024-02-04T15:38:26.481Z,9.50
2024-02-04T15:40:54.410Z,9.50
2024-02-04T15:43:23.183Z,9.50
2024-02-04T15:45:51.824Z,9.50
2024-02-04T15:48:23.909Z,9.50
2024-02-04T15:50:52.501Z,9.50
2024-02-04T15:53:20.962Z,9.50
2024-02-04T15:55:49.412Z,9.50
2024-02-04T15:58:17.950Z,9.50
2024-02-04T16:00:46.897Z,9.50
2024-02-04T16:03:17.653Z,9.50
2024-02-04T16:05:47.539Z,9.50
2024-02-04T16:08:16.158Z,9.40
2024-02-04T16:10:46.087Z,9.50
2024-02-04T16:13:14.679Z,9.40
2024-02-04T16:15:47.173Z,9.40
2024-02-04T16:18:16.129Z,9.40
2024-02-04T16:20:44.450Z,9.40
2024-02-04T16:23:13.803Z,9.40
2024-02-04T16:25:42.020Z,9.40
2024-02-04T16:28:10.062Z,9.50
2024-02-04T16:30:38.013Z,9.40
2024-02-04T16:33:06.614Z,9.50
2024-02-04T16:35:35.254Z,9.40
2024-02-04T16:38:03.143Z,9.50
2024-02-04T16:40:32.584Z,9.40
2024-02-04T16:43:00.802Z,9.50
2024-02-04T16:45:30.554Z,9.50
2024-02-04T16:47:59.828Z,9.50
2024-02-04T16:50:28.182Z,9.50
2024-02-04T16:52:56.124Z,9.50
2024-02-04T16:55:24.354Z,9.40
2024-02-04T16:57:53.753Z,9.40
2024-02-04T17:00:21.892Z,9.40
2024-02-04T17:02:51.092Z,9.40
2024-02-04T17:05:20.751Z,9.40
2024-02-04T17:07:49.331Z,9.40
2024-02-04T17:10:18.171Z,9.40
2024-02-04T17:12:47.033Z,9.40
2024-02-04T17:15:17.723Z,9.40
2024-02-04T17:17:54.609Z,9.40
2024-02-04T17:20:31.095Z,9.40
2024-02-04T17:23:02.128Z,9.40
2024-02-04T17:25:33.902Z,9.40
2024-02-04T17:28:05.864Z,9.40
2024-02-04T17:30:36.099Z,9.40
2024-02-04T17:33:06.021Z,9.40
2024-02-04T17:35:34.149Z,9.40
2024-02-04T17:38:05.329Z,9.40
2024-02-04T17:40:34.729Z,9.40
2024-02-04T17:43:03.021Z,9.40
2024-02-04T17:45:31.178Z,9.40
2024-02-04T17:48:00.457Z,9.40
2024-02-04T17:50:34.609Z,9.40
2024-02-04T17:53:02.622Z,9.40
2024-02-04T17:55:31.025Z,9.40
2024-02-04T17:58:01.001Z,9.30
2024-02-04T18:00:29.664Z,9.30
2024-02-04T18:02:58.745Z,9.40
2024-02-04T18:05:28.159Z,9.40
2024-02-04T18:07:56.267Z,9.40
2024-02-04T18:10:24.470Z,9.30
2024-02-04T18:12:52.511Z,9.30
2024-02-04T18:15:20.492Z,9.30
2024-02-04T18:17:49.512Z,9.30
2024-02-04T18:20:17.949Z,9.30
2024-02-04T18:22:47.440Z,9.30
2024-02-04T18:25:15.608Z,9.30
2024-02-04T18:27:44.097Z,9.30
2024-02-04T18:30:17.715Z,9.30
2024-02-04T18:32:45.886Z,9.30
2024-02-04T18:35:14.068Z,9.40
2024-02-04T18:37:42.062Z,9.30
2024-02-04T18:40:12.018Z,9.30
2024-02-04T18:42:40.553Z,9.30
2024-02-04T18:45:09.474Z,9.30
2024-02-04T18:47:37.523Z,9.30
2024-02-04T18:50:06.241Z,9.30
2024-02-04T18:52:34.718Z,9.40
2024-02-04T18:55:02.648Z,9.30
2024-02-04T18:57:32.802Z,9.30
2024-02-04T19:00:00.793Z,9.30
2024-02-04T19:02:28.663Z,9.30
2024-02-04T19:04:56.598Z,9.30
2024-02-04T19:07:25.075Z,9.30
2024-02-04T19:09:53.148Z,9.30
2024-02-04T19:12:21.508Z,9.30
2024-02-04T19:14:50.802Z,9.30
2024-02-04T19:17:19.157Z,9.30
2024-02-04T19:19:47.738Z,9.30
2024-02-04T19:22:15.877Z,9.30
2024-02-04T19:24:43.914Z,9.30
2024-02-04T19:27:13.163Z,9.30
2024-02-04T19:29:42.496Z,9.30
2024-02-04T19:32:12.066Z,9.30
2024-02-04T19:34:40.143Z,9.30
2024-02-04T19:37:09.372Z,9.30
2024-02-04T19:39:37.436Z,9.30
2024-02-04T19:42:05.604Z,9.30
2024-02-04T19:44:33.603Z,9.30
2024-02-04T19:47:01.496Z,9.30
2024-02-04T19:49:31.429Z,9.30
2024-02-04T19:52:01.831Z,9.30
2024-02-04T19:54:29.920Z,9.30
2024-02-04T19:56:57.854Z,9.30
2024-02-04T19:59:25.784Z,9.30
2024-02-04T20:01:53.908Z,9.30
2024-02-04T20:04:22.174Z,9.30
2024-02-04T20:06:51.734Z,9.30
2024-02-04T20:09:19.747Z,9.30
2024-02-04T20:11:47.744Z,9.30
2024-02-04T20:14:15.675Z,9.20
2024-02-04T20:16:43.687Z,9.30
2024-02-04T20:19:11.749Z,9.30
2024-02-04T20:21:39.953Z,9.30
2024-02-04T20:24:09.785Z,9.30
2024-02-04T20:26:38.401Z,9.30
2024-02-04T20:29:06.400Z,9.30
2024-02-04T20:31:35.083Z,9.30
2024-02-04T20:34:09.183Z,9.30
2024-02-04T20:36:38.227Z,9.30
2024-02-04T20:39:07.084Z,9.30
2024-02-04T20:41:36.529Z,9.30
2024-02-04T20:44:04.497Z,9.20
2024-02-04T20:46:41.023Z,9.30
2024-02-04T20:49:09.663Z,9.30
2024-02-04T20:51:38.119Z,9.30
2024-02-04T20:54:07.497Z,9.20
2024-02-04T20:56:37.472Z,9.30
2024-02-04T20:59:05.368Z,9.20
2024-02-04T21:01:33.484Z,9.20
2024-02-04T21:04:01.572Z,9.20
2024-02-04T21:06:32.898Z,9.30
2024-02-04T21:09:00.865Z,9.30
2024-02-04T21:11:29.609Z,9.30
2024-02-04T21:13:59.623Z,9.20
2024-02-04T21:16:28.770Z,9.20
2024-02-04T21:18:56.879Z,9.20
2024-02-04T21:21:24.992Z,9.20
2024-02-04T21:23:53.090Z,9.20
2024-02-04T21:26:21.295Z,9.20
2024-02-04T21:28:49.237Z,9.20
2024-02-04T21:31:18.632Z,9.20
2024-02-04T21:33:46.853Z,9.20
2024-02-04T21:36:14.974Z,9.20
2024-02-04T21:38:42.849Z,9.20
2024-02-04T21:41:18.735Z,9.20
2024-02-04T21:43:46.778Z,9.20
2024-02-04T21:46:14.936Z,9.20
2024-02-04T21:48:46.291Z,9.10
2024-02-04T21:51:14.389Z,9.20
2024-02-04T21:53:42.357Z,9.20
2024-02-04T21:56:11.351Z,9.10
2024-02-04T21:58:39.225Z,9.10
2024-02-04T22:01:07.802Z,9.20
2024-02-04T22:03:36.013Z,9.10
2024-02-04T22:06:05.795Z,9.10
2024-02-04T22:08:33.710Z,9.10
2024-02-04T22:11:02.017Z,9.10
2024-02-04T22:13:30.393Z,9.10
2024-02-04T22:15:58.328Z,9.10
2024-02-04T22:18:26.589Z,9.10
2024-02-04T22:20:54.822Z,9.10
2024-02-04T22:23:24.463Z,9.10
2024-02-04T22:25:54.164Z,9.10
2024-02-04T22:28:22.164Z,9.10
2024-02-04T22:30:50.136Z,9.10
2024-02-04T22:33:18.102Z,9.10
2024-02-04T22:35:46.387Z,9.10
2024-02-04T22:38:14.414Z,9.00
2024-02-04T22:40:43.758Z,9.00
2024-02-04T22:43:11.738Z,9.00
2024-02-04T22:45:39.746Z,9.00
2024-02-04T22:48:09.178Z,9.00
2024-02-04T22:50:39.536Z,9.00
2024-02-04T22:53:09.501Z,9.00
2024-02-04T22:55:37.503Z,9.00
2024-02-04T22:58:07.199Z,9.00
2024-02-04T23:00:35.219Z,9.00
2024-02-04T23:03:03.260Z,9.00
2024-02-04T23:05:31.454Z,9.00
2024-02-04T23:08:00.494Z,9.00
2024-02-04T23:10:30.150Z,9.00
2024-02-04T23:12:58.593Z,9.00
2024-02-04T23:15:28.156Z,9.00
2024-02-04T23:17:56.131Z,8.90
2024-02-04T23:20:24.173Z,9.00
2024-02-04T23:22:52.120Z,9.00
2024-02-04T23:25:24.351Z,8.90
2024-02-04T23:27:55.091Z,8.90
2024-02-04T23:30:23.346Z,8.90
2024-02-04T23:32:53.070Z,9.00
2024-02-04T23:35:21.152Z,8.90
2024-02-04T23:37:49.028Z,8.90
2024-02-04T23:40:17.785Z,8.90
2024-02-04T23:42:45.909Z,8.90
2024-02-04T23:45:13.986Z,8.90
2024-02-04T23:47:41.984Z,8.90
2024-02-04T23:50:12.461Z,8.90
2024-02-04T23:52:41.074Z,8.90
2024-02-04T23:55:10.036Z,8.90
2024-02-04T23:57:38.303Z,8.90
